Station: Roma  

  Atmospheric Gas Attenuation - ITU Rec 676-11   ----------------- dB/100km -----------------
Date Time Temp RH % AH g/m3 Dew Point Wind Direction Speed kph Gust kph Barometer mB Rainfall Since 9am 24GHz 47GHz 76GHz 122GHz 134GHz 241GHz
08/05 12:40 18 20 3.07 -5.3 28 33 1022.7 0 7.8 17.4 19.2 49.4 31.4 103.7
08/05 12:30 18.1 22 3.4 -3.9 19 24 1022.6 0 8.5 17.8 20.2 52.0 34.7 115.3
08/05 12:20 17.1 23 3.35 -4.2 24 26 1022.8 0 8.4 17.9 20.3 52.2 34.7 114.9
08/05 12:10 16.7 23 3.27 -4.5 22 24 1023.1 0 8.2 17.9 20.2 51.8 34.0 112.6
08/05 12:00 17 25 3.62 -3.1 20 30 1023.2 0 9.0 18.3 21.2 54.6 37.5 125.0
08/05 11:50 17.5 25 3.73 -2.7 20 26 1023.5 0 9.2 18.3 21.4 55.2 38.5 128.3
08/05 11:40 16.1 26 3.56 -3.4 19 20 1023.6 0 8.9 18.4 21.2 54.7 37.3 124.1
08/05 11:30 16.3 26 3.61 -3.2 24 33 1023.7 0 9.0 18.4 21.4 55.0 37.8 125.7
08/05 11:20 16.1 29 3.97 -1.9 22 30 1023.9 0 9.7 18.9 22.6 58.2 41.7 139.5
08/05 11:10 15.8 29 3.9 -2.2 19 20 1024.1 0 9.6 18.9 22.4 57.9 41.1 137.4
08/05 11:00 14.7 31 3.9 -2.2 22 33 1024.3 0 9.6 19.1 22.7 58.7 41.7 139.3
08/05 10:50 14.9 32 4.08 -1.6 24 28 1024.5 0 10.0 19.3 23.3 60.1 43.5 145.9
08/05 10:40 15 30 3.85 -2.4 26 28 1024.6 0 9.5 19.0 22.5 58.0 41.0 136.9
08/05 10:30 14.9 31 3.95 -2.1 22 30 1024.8 0 9.7 19.2 22.9 59.0 42.1 140.9
08/05 10:20 15.2 33 4.28 -0.9 19 20 1025 0 10.4 19.5 23.9 61.7 45.6 153.1
08/05 10:10 14.3 33 4.05 -1.7 24 30 1024.9 0 9.9 19.4 23.4 60.3 43.5 145.8
08/05 10:00 13.9 35 4.2 -1.3 22 30 1024.9 0 10.3 19.7 24.0 62.0 45.4 152.4
08/05 09:50 13.4 36 4.19 -1.3 24 30 1025.2 0 10.3 19.8 24.1 62.3 45.6 153.0
08/05 09:40 12.7 38 4.23 -1.2 24 30 1025.2 0 10.4 20.0 24.4 63.2 46.5 155.9
08/05 09:30 11.9 38 4.03 -1.9 26 33 1025.3 0 10.0 19.9 24.0 62.0 44.6 149.4
08/05 09:20 11.6 39 4.05 -1.9 28 33 1025.1 0 10.0 20.0 24.1 62.4 45.0 150.7
08/05 09:10 12.1 39 4.18 -1.4 26 32 1025.2 0 10.3 20.1 24.4 63.2 46.2 155.0
08/05 09:00 11.6 39 4.05 -1.9 28 41 1025.1 0 10.0 20.0 24.1 62.4 45.0 150.7
08/05 08:50 11.4 40 4.11 -1.7 26 30 1025.1 0 10.1 20.1 24.4 63.1 45.8 153.5
08/05 08:40 10.4 43 4.15 -1.6 17 20 1025.2 0 10.3 20.4 24.8 64.2 46.9 157.0
08/05 08:30 9.7 44 4.06 -1.9 15 20 1025 0 10.1 20.4 24.7 63.9 46.2 154.6
08/05 08:20 9.1 46 4.08 -1.9 13 15 1025 0 10.1 20.6 25.0 64.6 46.8 156.6
08/05 08:10 8.6 46 3.95 -2.3 15 17 1025 0 9.9 20.5 24.7 63.7 45.5 152.1
08/05 08:00 8.3 47 3.96 -2.3 11 13 1025 0 9.9 20.6 24.8 64.1 45.8 153.1
08/05 07:50 7.8 49 4 -2.2 9 11 1024.9 0 10.0 20.8 25.1 64.9 46.6 155.7
08/05 07:40 7.4 51 4.06 -2.1 9 11 1024.8 0 10.2 20.9 25.4 65.8 47.5 159.0
08/05 07:30 7 53 4.11 -1.9 9 13 1024.9 0 10.3 21.1 25.7 66.6 48.4 162.0
08/05 07:20 6.3 56 4.15 -1.8 11 11 1024.8 0 10.4 21.3 26.1 67.6 49.3 165.1
08/05 07:10 5.3 60 4.16 -1.8 13 13 1024.6 0 10.4 21.6 26.4 68.5 50.1 167.6
08/05 07:00 3.7 67 4.18 -1.8 11 13 1024.7 0 10.5 22.0 27.1 70.1 51.3 171.9
08/05 06:50 3.3 67 4.07 -2.2 11 13 1024.5 0 10.3 21.9 26.8 69.3 50.2 167.8
08/05 06:40 3.1 66 3.95 -2.6 9 11 1024.5 0 10.0 21.8 26.4 68.2 48.8 162.8
08/05 06:30 3.3 65 3.95 -2.6 13 13 1024.4 0 10.0 21.7 26.3 68.1 48.7 162.4
08/05 06:20 3.8 63 3.96 -2.6 13 13 1024.1 0 10.0 21.6 26.2 67.7 48.5 161.8
08/05 06:10 3.6 65 4.03 -2.3 15 15 1024 0 10.2 21.7 26.5 68.6 49.5 165.3
08/05 06:00 3.2 66 3.98 -2.5 13 15 1024.1 0 10.1 21.8 26.4 68.4 49.1 163.9
08/05 05:50 3.1 66 3.95 -2.6 13 13 1023.8 0 10.0 21.7 26.3 68.2 48.8 162.7
08/05 05:40 3.8 63 3.96 -2.6 13 13 1023.8 0 10.0 21.6 26.1 67.7 48.4 161.7
08/05 05:30 4.1 62 3.97 -2.5 13 15 1023.9 0 10.1 21.5 26.1 67.5 48.4 161.6
08/05 05:20 3.9 64 4.05 -2.3 13 13 1023.9 0 10.2 21.7 26.5 68.5 49.5 165.5
08/05 05:10 3.9 63 3.98 -2.5 13 13 1023.9 0 10.1 21.6 26.2 67.8 48.6 162.4
08/05 05:00 4.8 59 3.96 -2.5 13 15 1023.8 0 10.0 21.3 25.8 66.8 47.8 159.7
08/05 04:50 4.8 59 3.96 -2.5 13 15 1023.8 0 10.0 21.3 25.8 66.8 47.8 159.7
08/05 04:40 5.1 58 3.97 -2.5 13 13 1023.6 0 10.0 21.3 25.8 66.7 47.8 159.5
08/05 04:30 4.9 60 4.05 -2.2 13 15 1023.5 0 10.2 21.4 26.1 67.6 48.9 163.4
08/05 04:20 4.7 60 4 -2.4 13 13 1023.4 0 10.1 21.4 26.0 67.3 48.4 161.6
08/05 04:10 4.3 61 3.96 -2.5 13 13 1023.4 0 10.0 21.4 26.0 67.2 48.1 160.7
08/05 04:00 4.7 60 4 -2.4 11 13 1023.4 0 10.1 21.4 26.0 67.3 48.4 161.6
08/05 03:50 5.4 57 3.98 -2.4 11 11 1023.3 0 10.0 21.2 25.7 66.5 47.7 159.3
08/05 03:40 5.8 57 4.09 -2 13 15 1023.3 0 10.3 21.3 26.0 67.3 48.8 163.3
08/05 03:30 5.6 56 3.96 -2.5 13 15 1023.2 0 10.0 21.1 25.6 66.1 47.3 158.1
08/05 03:20 6.1 54 3.95 -2.5 13 15 1023.1 0 10.0 21.0 25.4 65.6 46.9 156.6
08/05 03:10 6.3 54 4 -2.3 15 15 1023.2 0 10.1 21.0 25.5 65.9 47.4 158.4
08/05 03:00 6.3 54 4 -2.3 13 15 1023.1 0 10.1 21.0 25.5 65.9 47.4 158.4
08/05 02:50 6.8 53 4.06 -2.1 11 13 1023.1 0 10.2 21.0 25.5 66.1 47.8 160.0
08/05 02:40 7.6 49 3.95 -2.4 13 13 1023.1 0 9.9 20.7 24.9 64.4 46.0 153.8
08/05 02:30 8.4 47 3.99 -2.2 15 19 1023 0 10.0 20.5 24.8 64.1 46.0 153.9
08/05 02:20 8.9 46 4.03 -2.1 17 17 1022.8 0 10.0 20.5 24.8 64.1 46.2 154.6
08/05 02:10 8.9 46 4.03 -2.1 17 19 1023 0 10.0 20.5 24.8 64.1 46.2 154.6
08/05 02:00 9.3 46 4.14 -1.7 19 24 1022.9 0 10.3 20.6 25.1 64.8 47.3 158.4
08/05 01:50 9.5 47 4.28 -1.2 19 22 1022.8 0 10.6 20.7 25.5 66.0 48.8 163.8
08/05 01:40 9.5 48 4.37 -0.9 19 22 1022.7 0 10.7 20.8 25.8 66.9 49.9 167.6
08/05 01:30 9.9 48 4.48 -0.6 19 24 1022.8 0 11.0 20.9 26.1 67.6 50.9 171.3
08/05 01:20 9.7 51 4.7 0.1 15 17 1022.8 0 11.4 21.3 26.9 69.9 53.7 181.0
08/05 01:10 9.9 52 4.86 0.5 19 20 1022.7 0 11.8 21.5 27.5 71.3 55.5 187.3
08/05 01:00 9.9 54 5.04 1 13 17 1022.8 0 12.2 21.7 28.1 73.0 57.7 195.0
08/05 00:50 10.1 53 5.01 1 13 15 1022.7 0 12.1 21.6 27.9 72.6 57.2 193.3
08/05 00:40 10.8 51 5.04 1.1 19 22 1022.5 0 12.1 21.5 27.8 72.2 57.0 192.8
08/05 00:30 10.9 53 5.27 1.7 17 24 1022.5 0 12.6 21.8 28.6 74.4 59.7 202.3
08/05 00:20 11.1 57 5.74 2.9 17 20 1022.5 0 13.6 22.5 30.3 78.8 65.3 222.0
08/05 00:10 11.4 55 5.65 2.7 19 20 1022.7 0 13.4 22.3 29.8 77.7 64.0 217.3
08/05 00:00 11.8 53 5.58 2.5 24 33 1022.8 0 13.2 22.1 29.4 76.6 62.8 213.3
07/05 23:50 11 66 6.61 4.9 20 24 1022.8 0 15.5 23.9 33.6 87.8 76.4 260.8
07/05 23:40 9.2 71 6.34 4.2 11 11 1022.8 0 15.0 23.9 33.3 87.0 74.6 254.4
07/05 23:30 9.5 68 6.19 3.9 13 15 1022.6 0 14.6 23.6 32.6 85.1 72.4 246.6
07/05 23:20 9.6 67 6.14 3.8 13 15 1022.7 0 14.5 23.5 32.4 84.4 71.6 244.1
07/05 23:10 10.3 65 6.23 4 11 13 1022.7 0 14.7 23.4 32.4 84.6 72.2 245.9
07/05 23:00 10.1 65 6.15 3.8 13 17 1022.6 0 14.5 23.4 32.2 84.0 71.3 243.0
07/05 22:50 10.1 64 6.05 3.6 15 17 1022.5 0 14.3 23.2 31.8 83.0 70.0 238.5
07/05 22:40 10.1 62 5.86 3.2 13 13 1022.7 0 13.9 22.9 31.1 81.0 67.7 230.1
07/05 22:30 10.6 61 5.96 3.4 15 17 1022.6 0 14.1 22.9 31.3 81.5 68.5 233.1
07/05 22:20 10.6 60 5.86 3.2 15 17 1022.7 0 13.9 22.8 30.9 80.5 67.2 228.7
07/05 22:10 10.1 61 5.77 2.9 15 17 1022.5 0 13.7 22.8 30.8 80.1 66.5 226.1
07/05 22:00 9.9 62 5.79 3 13 15 1022.4 0 13.8 22.9 30.9 80.5 66.9 227.5
07/05 21:50 9.6 63 5.77 2.9 13 15 1022.3 0 13.7 22.9 30.9 80.6 66.9 227.5
07/05 21:40 9.7 62 5.72 2.8 13 13 1022.2 0 13.6 22.8 30.7 80.0 66.2 225.0
07/05 21:30 9.8 62 5.75 2.9 13 15 1022.3 0 13.7 22.8 30.8 80.2 66.5 226.0
07/05 21:20 9.8 62 5.75 2.9 11 11 1022.2 0 13.7 22.8 30.8 80.2 66.5 226.0
07/05 21:10 9.9 62 5.79 3 11 13 1022.2 0 13.8 22.8 30.9 80.5 66.9 227.5
07/05 21:00 10 62 5.83 3.1 11 13 1022.1 0 13.8 22.9 31.0 80.8 67.3 229.0
07/05 20:50 9.9 61 5.7 2.7 11 11 1022 0 13.6 22.7 30.5 79.6 65.8 223.5
07/05 20:40 10.1 60 5.68 2.7 9 11 1021.9 0 13.5 22.6 30.4 79.2 65.4 222.0
07/05 20:30 10.6 60 5.86 3.2 9 11 1021.9 0 13.9 22.8 30.9 80.5 67.2 228.5
07/05 20:20 10.5 59 5.72 2.8 9 9 1021.8 0 13.6 22.6 30.4 79.2 65.5 222.7
07/05 20:10 11 57 5.71 2.8 9 11 1021.7 0 13.5 22.4 30.2 78.6 65.0 220.8

Last Refresh: 08-May-2026 12:09:34

Bureau of Meteorology